Terminal Aerodrome Forecast
Issued by NWS

Home | Current Version | Previous Version | Graphics & Text | Print | Product List | Glossary On
Versions: 1 2 3 4 5 6 7 8 9 10 11 12 13 14 15
000
FTUS43 KIWX 231600 AAA
TAFSBN
TAF AMD
KSBN 231638Z 2317/2412 22010KT P6SM SCT015 BKN035
      TEMPO 2317/2319 BKN020
     FM232100 20006KT 6SM BR SCT020 OVC120
     FM240700 05005KT 4SM -RA SCT010 OVC020
     FM241000 01004KT 2SM -RA BR OVC008=

USA.gov is the U.S. government's official web portal to all federal, state and local government web resources and services.